Time;durP1;ratioP1;P1;durP2;ratioP2;P2;SDS_P1;SDS_P2;PMS_P1;PMS_P2;Temp;Humidity;BMP_temperature;BMP_pressure;BME280_temperature;BME280_humidity;BME280_pressure;Samples;Min_cycle;Max_cycle;Signal;HPM_P1;HPM_P2
2021/01/30 00:02:05;;;;;;;44.70;19.50;;;-2.30;99.90;;;;;;5071122;28;20516;-82
2021/01/30 00:04:30;;;;;;;47.55;19.50;;;-2.30;99.90;;;;;;5071125;28;20048;-81
2021/01/30 00:06:57;;;;;;;46.13;20.92;;;-2.30;99.90;;;;;;5072568;28;20095;-81
2021/01/30 00:09:25;;;;;;;42.03;21.15;;;-2.30;99.90;;;;;;5072317;28;20381;-81
2021/01/30 00:11:52;;;;;;;44.55;21.30;;;-2.30;99.90;;;;;;5072413;28;20025;-81
2021/01/30 00:14:30;;;;;;;47.17;21.15;;;-2.30;99.90;;;;;;5071184;28;20029;-81
2021/01/30 00:16:57;;;;;;;52.42;21.02;;;-2.30;99.90;;;;;;5072462;28;20474;-81
2021/01/30 00:19:23;;;;;;;49.85;21.00;;;-2.30;99.90;;;;;;5072409;28;20535;-81
2021/01/30 00:21:51;;;;;;;52.05;21.73;;;-2.30;99.90;;;;;;5071098;28;20453;-81
2021/01/30 00:24:16;;;;;;;51.45;23.23;;;-2.30;99.90;;;;;;5071136;28;20032;-81
2021/01/30 00:26:42;;;;;;;52.17;24.25;;;-2.30;99.90;;;;;;5074391;28;20608;-81
2021/01/30 00:29:11;;;;;;;54.20;24.38;;;-2.40;99.90;;;;;;5076111;28;20104;-82
2021/01/30 00:31:37;;;;;;;50.08;24.92;;;-2.30;99.90;;;;;;5074737;28;20028;-82
2021/01/30 00:34:02;;;;;;;64.45;28.20;;;-2.40;99.90;;;;;;5074717;28;20020;-81
2021/01/30 00:36:28;;;;;;;59.10;26.00;;;-2.40;99.90;;;;;;5075878;28;20050;-81
2021/01/30 00:38:54;;;;;;;69.95;30.08;;;-2.40;99.90;;;;;;5074567;28;20474;-81
2021/01/30 00:41:20;;;;;;;106.15;45.22;;;-2.40;99.90;;;;;;5057971;28;20028;-81
2021/01/30 00:43:46;;;;;;;99.28;42.67;;;-2.40;99.90;;;;;;5075741;28;20025;-81
2021/01/30 00:46:11;;;;;;;94.30;38.60;;;-2.40;99.90;;;;;;5075753;28;20389;-81
2021/01/30 00:48:37;;;;;;;81.45;35.00;;;-2.40;99.90;;;;;;5075668;28;20028;-82
2021/01/30 00:51:03;;;;;;;69.15;27.92;;;-2.40;99.90;;;;;;5074487;28;20195;-81
2021/01/30 00:53:28;;;;;;;64.47;29.17;;;-2.40;99.90;;;;;;5075627;28;20032;-81
2021/01/30 00:55:54;;;;;;;52.67;23.90;;;-2.40;99.90;;;;;;5057770;28;20031;-81
2021/01/30 00:58:19;;;;;;;50.13;22.40;;;-2.50;99.90;;;;;;5074297;28;20035;-82
2021/01/30 01:00:45;;;;;;;54.25;25.80;;;-2.50;99.90;;;;;;5074304;28;20024;-81
2021/01/30 01:03:12;;;;;;;55.35;24.48;;;-2.50;99.90;;;;;;5075489;28;20025;-81
2021/01/30 01:05:39;;;;;;;59.30;23.95;;;-2.50;99.90;;;;;;5074072;28;20405;-81
2021/01/30 01:08:04;;;;;;;53.55;24.25;;;-2.50;99.90;;;;;;5074089;28;20024;-81
2021/01/30 01:10:30;;;;;;;57.05;24.48;;;-2.50;99.90;;;;;;5074156;28;20024;-81
2021/01/30 01:12:55;;;;;;;54.90;25.42;;;-2.50;99.90;;;;;;5074073;28;20490;-80
2021/01/30 01:15:22;;;;;;;60.70;27.75;;;-2.50;99.90;;;;;;5075208;28;20020;-81
2021/01/30 01:17:50;;;;;;;57.70;28.38;;;-2.50;99.90;;;;;;5072603;28;20035;-81
2021/01/30 01:20:20;;;;;;;59.10;27.40;;;-2.50;99.90;;;;;;5074384;28;20108;-81
2021/01/30 01:22:45;;;;;;;59.55;26.58;;;-2.50;99.90;;;;;;5074272;28;20025;-81
2021/01/30 01:25:12;;;;;;;57.97;26.00;;;-2.50;99.90;;;;;;5075054;28;20033;-81
2021/01/30 01:27:38;;;;;;;57.88;26.23;;;-2.50;99.90;;;;;;5075319;28;20029;-81
2021/01/30 01:30:08;;;;;;;53.72;24.90;;;-2.50;99.90;;;;;;5073808;28;20031;-81
2021/01/30 01:32:34;;;;;;;54.97;26.63;;;-2.50;99.90;;;;;;5073686;28;20478;-80
2021/01/30 01:35:00;;;;;;;63.55;23.80;;;-2.50;99.90;;;;;;5073582;28;20031;-81
2021/01/30 01:37:25;;;;;;;48.05;23.15;;;-2.50;99.90;;;;;;5073770;28;20047;-81
2021/01/30 01:39:51;;;;;;;53.03;25.92;;;-2.60;99.90;;;;;;5074768;28;20020;-81
2021/01/30 01:42:20;;;;;;;47.58;22.65;;;-2.60;99.90;;;;;;5056159;28;20107;-81
2021/01/30 01:44:47;;;;;;;52.83;24.67;;;-2.60;99.90;;;;;;5074311;28;20035;-81
2021/01/30 01:47:33;;;;;;;59.95;26.83;;;-2.50;99.90;;;;;;5074739;28;20027;-81
2021/01/30 01:50:03;;;;;;;55.40;25.42;;;-2.50;99.90;;;;;;5074709;28;20027;-81
2021/01/30 01:52:35;;;;;;;49.85;25.55;;;-2.50;99.90;;;;;;5074500;28;20028;-81
2021/01/30 01:55:15;;;;;;;59.63;28.45;;;-2.50;99.90;;;;;;5074525;28;20009;-81
2021/01/30 01:57:47;;;;;;;63.58;27.45;;;-2.50;99.90;;;;;;5074533;28;20025;-81
2021/01/30 02:00:14;;;;;;;60.53;28.05;;;-2.50;99.90;;;;;;5074506;28;20016;-81
2021/01/30 02:02:40;;;;;;;62.00;28.55;;;-2.40;99.90;;;;;;5073043;28;20013;-81
2021/01/30 02:05:15;;;;;;;56.15;27.67;;;-2.50;99.90;;;;;;5072963;28;20043;-81
2021/01/30 02:07:43;;;;;;;65.15;30.65;;;-2.50;99.90;;;;;;5073832;28;20154;-81
2021/01/30 02:10:19;;;;;;;63.78;31.88;;;-2.50;99.90;;;;;;5072952;28;20062;-81
2021/01/30 02:12:46;;;;;;;56.55;27.85;;;-2.50;99.90;;;;;;5074314;28;20025;-81
2021/01/30 02:15:14;;;;;;;72.13;30.55;;;-2.50;99.90;;;;;;5074073;28;20025;-81
2021/01/30 02:18:08;;;;;;;64.63;29.38;;;-2.50;99.90;;;;;;5072817;28;20052;-81
2021/01/30 02:20:42;;;;;;;74.18;32.55;;;-2.50;99.90;;;;;;5073940;28;20054;-81
2021/01/30 02:23:11;;;;;;;71.22;30.65;;;-2.50;99.90;;;;;;5072667;28;20041;-80
2021/01/30 02:26:01;;;;;;;78.47;30.10;;;-2.50;99.90;;;;;;5073785;28;20032;-80
2021/01/30 02:28:39;;;;;;;70.82;30.65;;;-2.50;99.90;;;;;;5072713;28;20047;-81
2021/01/30 02:31:39;;;;;;;68.20;33.05;;;-2.50;99.90;;;;;;5073879;28;20028;-81
2021/01/30 02:34:31;;;;;;;68.75;31.13;;;-2.50;99.90;;;;;;5072477;28;20071;-81
2021/01/30 02:36:56;;;;;;;63.63;29.27;;;-2.50;99.90;;;;;;5071982;28;20028;-81
2021/01/30 02:39:39;;;;;;;70.40;31.30;;;-2.50;99.90;;;;;;5073639;28;20522;-81
2021/01/30 02:42:11;;;;;;;71.75;33.25;;;-2.50;99.90;;;;;;5072420;28;20111;-81
2021/01/30 02:44:49;;;;;;;73.15;31.65;;;-2.50;99.90;;;;;;5072157;28;20025;-81
2021/01/30 02:47:17;;;;;;;76.13;28.67;;;-2.40;99.90;;;;;;5073529;28;20013;-81
2021/01/30 02:49:48;;;;;;;73.97;32.10;;;-2.50;99.90;;;;;;5071734;28;20564;-81
2021/01/30 02:52:25;;;;;;;68.32;28.30;;;-2.50;99.90;;;;;;5073372;28;20021;-81
2021/01/30 02:54:55;;;;;;;70.03;30.65;;;-2.50;99.90;;;;;;5071880;28;20032;-81
2021/01/30 02:57:24;;;;;;;58.90;30.92;;;-2.50;99.90;;;;;;5071928;28;20095;-81
2021/01/30 02:59:52;;;;;;;68.78;31.45;;;-2.50;99.90;;;;;;5071918;28;20021;-81
2021/01/30 03:02:20;;;;;;;69.78;31.02;;;-2.60;99.90;;;;;;5072028;28;20482;-80
2021/01/30 03:04:46;;;;;;;75.43;34.78;;;-2.60;99.90;;;;;;5071858;28;20025;-81
2021/01/30 03:07:32;;;;;;;70.55;32.03;;;-2.60;99.90;;;;;;5071928;28;20020;-80
2021/01/30 03:10:26;;;;;;;68.25;30.05;;;-2.50;99.90;;;;;;5071803;28;20025;-81
2021/01/30 03:13:08;;;;;;;69.30;29.13;;;-2.50;99.90;;;;;;5073171;28;20021;-80
2021/01/30 03:15:57;;;;;;;74.07;29.42;;;-2.50;99.90;;;;;;5071821;28;20107;-81
2021/01/30 03:18:31;;;;;;;65.60;29.50;;;-2.60;99.90;;;;;;5073091;28;20477;-81
2021/01/30 03:20:58;;;;;;;73.00;33.90;;;-2.60;99.90;;;;;;5073032;28;20491;-81
2021/01/30 03:23:24;;;;;;;68.22;30.50;;;-2.60;99.90;;;;;;5077218;28;20020;-81
2021/01/30 03:25:52;;;;;;;62.60;27.58;;;-2.60;99.90;;;;;;5093102;28;20028;-81
2021/01/30 03:28:18;;;;;;;70.32;32.95;;;-2.60;99.90;;;;;;5074869;28;20032;-81
2021/01/30 03:30:45;;;;;;;71.82;31.48;;;-2.50;99.90;;;;;;5074615;28;20515;-81
2021/01/30 03:33:12;;;;;;;71.82;29.90;;;-2.50;99.90;;;;;;5074910;28;20024;-82
2021/01/30 03:35:37;;;;;;;77.35;32.50;;;-2.50;99.90;;;;;;5093071;28;20051;-81
2021/01/30 03:38:03;;;;;;;70.18;30.17;;;-2.50;99.90;;;;;;5074975;28;20062;-82
2021/01/30 03:40:29;;;;;;;69.85;28.48;;;-2.60;99.90;;;;;;5093021;28;20078;-81
2021/01/30 03:42:55;;;;;;;66.63;29.25;;;-2.60;99.90;;;;;;5074881;28;20020;-81
2021/01/30 03:45:25;;;;;;;60.05;28.33;;;-2.50;99.90;;;;;;5074738;28;20039;-81
2021/01/30 03:47:50;;;;;;;64.95;30.90;;;-2.60;99.90;;;;;;5092403;28;20035;-82
2021/01/30 03:50:18;;;;;;;70.57;33.40;;;-2.50;99.90;;;;;;5092887;28;20020;-81
2021/01/30 03:52:43;;;;;;;66.30;29.63;;;-2.50;99.90;;;;;;5074812;28;20009;-81
2021/01/30 03:55:10;;;;;;;72.80;30.08;;;-2.50;99.90;;;;;;5092845;28;20035;-81
2021/01/30 03:57:37;;;;;;;71.85;30.02;;;-2.60;99.90;;;;;;5092892;28;20020;-81
2021/01/30 04:00:08;;;;;;;66.30;30.40;;;-2.60;99.90;;;;;;5092849;28;20466;-81
2021/01/30 04:02:34;;;;;;;68.78;30.88;;;-2.60;99.90;;;;;;5078379;28;20030;-81
2021/01/30 04:04:59;;;;;;;70.07;28.98;;;-2.60;99.90;;;;;;5096908;28;20119;-81
2021/01/30 04:07:25;;;;;;;74.28;31.30;;;-2.60;99.90;;;;;;5078765;28;20062;-81
2021/01/30 04:09:51;;;;;;;66.65;29.40;;;-2.60;99.90;;;;;;5095883;28;20024;-80
2021/01/30 04:12:17;;;;;;;67.63;30.52;;;-2.60;99.90;;;;;;5096884;28;20094;-80
2021/01/30 04:14:42;;;;;;;72.43;32.92;;;-2.60;99.90;;;;;;5096678;28;20354;-80
2021/01/30 04:17:09;;;;;;;67.78;30.00;;;-2.60;99.90;;;;;;5096751;28;20097;-81
2021/01/30 04:19:36;;;;;;;69.75;30.40;;;-2.60;99.90;;;;;;5096569;28;20066;-81
2021/01/30 04:22:04;;;;;;;62.22;31.00;;;-2.60;99.90;;;;;;5096639;28;20420;-81
2021/01/30 04:24:29;;;;;;;70.63;31.63;;;-2.60;99.90;;;;;;5096459;28;20032;-81
2021/01/30 04:26:55;;;;;;;71.43;30.52;;;-2.60;99.90;;;;;;5078327;28;20047;-81
2021/01/30 04:29:21;;;;;;;65.80;31.85;;;-2.60;99.90;;;;;;5078210;28;20028;-81
2021/01/30 04:31:51;;;;;;;70.25;30.92;;;-2.60;99.90;;;;;;5078272;28;20102;-81
2021/01/30 04:34:17;;;;;;;73.43;31.27;;;-2.50;99.90;;;;;;5096442;28;20107;-81
2021/01/30 04:36:43;;;;;;;60.90;29.60;;;-2.50;99.90;;;;;;5096416;28;20060;-81
2021/01/30 04:39:08;;;;;;;63.03;28.98;;;-2.50;99.90;;;;;;5096216;28;20032;-81
2021/01/30 04:41:52;;;;;;;75.43;33.13;;;-2.50;99.90;;;;;;5078075;28;20016;-81
2021/01/30 04:44:21;;;;;;;57.10;28.08;;;-2.50;99.90;;;;;;5096249;28;20393;-82
2021/01/30 04:47:03;;;;;;;64.72;32.28;;;-2.50;99.90;;;;;;5077769;28;20031;-82
2021/01/30 04:49:34;;;;;;;70.60;30.10;;;-2.50;99.90;;;;;;5094808;28;20021;-81
2021/01/30 04:52:12;;;;;;;72.13;34.28;;;-2.50;99.90;;;;;;5092387;28;20170;-83
2021/01/30 04:54:50;;;;;;;68.75;31.38;;;-2.50;99.90;;;;;;5073286;28;20025;-81
2021/01/30 04:57:53;;;;;;;65.32;31.63;;;-2.50;99.90;;;;;;5075601;28;20486;-82
2021/01/30 05:00:39;;;;;;;62.83;30.85;;;-2.40;99.90;;;;;;5073614;28;20044;-81
2021/01/30 05:03:29;;;;;;;68.20;30.15;;;-2.40;99.90;;;;;;5074267;28;20036;-81
2021/01/30 05:06:02;;;;;;;73.25;34.88;;;-2.30;99.90;;;;;;5074177;28;20036;-81
2021/01/30 05:08:36;;;;;;;68.43;33.67;;;-2.30;99.90;;;;;;5074251;28;20017;-82
2021/01/30 05:11:05;;;;;;;78.32;34.53;;;-2.30;99.90;;;;;;5074191;28;20025;-81
2021/01/30 05:13:37;;;;;;;74.78;34.53;;;-2.30;99.90;;;;;;5075141;28;20078;-81
2021/01/30 05:16:12;;;;;;;62.38;29.75;;;-2.30;99.90;;;;;;5075418;28;20107;-81
2021/01/30 05:18:45;;;;;;;76.07;34.72;;;-2.30;99.90;;;;;;5075272;28;20444;-81
2021/01/30 05:21:32;;;;;;;86.10;34.97;;;-2.30;99.90;;;;;;5075272;28;20385;-82
2021/01/30 05:23:57;;;;;;;75.80;34.75;;;-2.30;99.90;;;;;;5075240;28;20025;-82
2021/01/30 05:26:47;;;;;;;67.32;32.15;;;-2.20;99.90;;;;;;5074997;28;20036;-81
2021/01/30 05:29:36;;;;;;;75.20;36.13;;;-2.20;99.90;;;;;;5071654;28;20397;-81
2021/01/30 05:32:26;;;;;;;65.80;34.55;;;-2.10;99.90;;;;;;5074122;28;20036;-82
2021/01/30 05:35:07;;;;;;;65.93;31.40;;;-2.10;99.90;;;;;;5056931;28;20083;-82
2021/01/30 05:37:38;;;;;;;70.82;32.70;;;-2.00;99.90;;;;;;5073619;28;20024;-81
2021/01/30 05:40:19;;;;;;;76.57;33.63;;;-2.00;99.90;;;;;;5074908;28;20095;-81
2021/01/30 05:43:12;;;;;;;81.35;35.75;;;-2.00;99.90;;;;;;5073530;28;20079;-82
2021/01/30 05:45:38;;;;;;;87.43;36.08;;;-2.00;99.90;;;;;;5073428;28;20183;-81
2021/01/30 05:48:10;;;;;;;76.00;36.20;;;-2.00;99.90;;;;;;5073421;28;20123;-81
2021/01/30 05:50:47;;;;;;;90.88;36.33;;;-1.90;99.90;;;;;;5056694;28;20039;-81
2021/01/30 05:53:16;;;;;;;79.18;37.85;;;-1.90;99.90;;;;;;5074585;28;20544;-82
2021/01/30 05:55:42;;;;;;;88.35;38.35;;;-1.90;99.90;;;;;;5073018;28;20032;-81
2021/01/30 05:58:15;;;;;;;90.85;43.70;;;-1.90;99.90;;;;;;5071773;28;20020;-81
2021/01/30 06:00:41;;;;;;;81.30;38.22;;;-1.80;99.90;;;;;;5056485;28;20036;-81
2021/01/30 06:03:21;;;;;;;88.25;40.03;;;-1.80;99.90;;;;;;5073089;28;20102;-81
2021/01/30 06:06:06;;;;;;;85.28;35.47;;;-1.80;99.90;;;;;;5073081;28;20033;-81
2021/01/30 06:08:33;;;;;;;81.75;36.38;;;-1.80;99.90;;;;;;5074292;28;20159;-81
2021/01/30 06:11:09;;;;;;;77.07;37.60;;;-1.70;99.90;;;;;;5056369;28;20024;-81
2021/01/30 06:13:53;;;;;;;91.55;40.55;;;-1.60;99.90;;;;;;5072839;28;20021;-81
2021/01/30 06:17:01;;;;;;;90.80;41.22;;;-1.60;99.90;;;;;;5072990;28;20025;-81
2021/01/30 06:19:33;;;;;;;75.22;34.95;;;-1.50;99.90;;;;;;4992784;28;20042;-81
2021/01/30 06:22:22;;;;;;;95.60;40.15;;;-1.50;99.90;;;;;;5009009;28;20053;-81
2021/01/30 06:24:49;;;;;;;82.97;39.03;;;-1.50;99.90;;;;;;5048287;28;20041;-82
2021/01/30 06:27:40;;;;;;;93.75;43.47;;;-1.40;99.90;;;;;;5072560;28;20126;-81
2021/01/30 06:30:37;;;;;;;106.60;49.30;;;-1.30;99.90;;;;;;5063091;28;20103;-81
2021/01/30 06:33:17;;;;;;;106.65;47.08;;;-1.30;99.90;;;;;;5066673;28;20041;-81
2021/01/30 06:35:42;;;;;;;100.93;40.50;;;-1.20;99.90;;;;;;5073710;28;20104;-81
2021/01/30 06:38:30;;;;;;;99.82;44.85;;;-1.10;99.90;;;;;;5072406;28;20115;-82
2021/01/30 06:41:02;;;;;;;101.85;42.15;;;-1.10;99.90;;;;;;5073687;28;20496;-82
2021/01/30 06:43:34;;;;;;;87.60;41.40;;;-1.00;99.90;;;;;;5073171;28;20028;-82
2021/01/30 06:46:12;;;;;;;89.75;42.13;;;-1.00;99.90;;;;;;5071786;28;20032;-81
2021/01/30 06:48:47;;;;;;;102.93;45.40;;;-0.90;99.90;;;;;;5055160;28;20071;-81
2021/01/30 06:51:36;;;;;;;100.47;46.28;;;-0.80;99.90;;;;;;5056528;28;20024;-82
2021/01/30 06:54:26;;;;;;;96.03;43.10;;;-0.80;99.90;;;;;;5070392;28;20020;-81
2021/01/30 06:57:26;;;;;;;108.97;51.70;;;-0.70;99.90;;;;;;5070489;28;20385;-82
2021/01/30 06:59:58;;;;;;;100.88;46.35;;;-0.60;99.90;;;;;;5064864;28;20370;-82
2021/01/30 07:02:38;;;;;;;117.80;54.05;;;-0.60;99.90;;;;;;5070211;28;20081;-82
2021/01/30 07:05:22;;;;;;;159.25;68.97;;;-0.50;99.90;;;;;;5072657;28;20036;-81
2021/01/30 07:08:12;;;;;;;152.27;71.80;;;-0.50;99.90;;;;;;5072374;28;20616;-81
2021/01/30 07:10:51;;;;;;;182.63;84.10;;;-0.50;99.90;;;;;;5072296;28;20056;-81
2021/01/30 07:13:53;;;;;;;145.18;68.88;;;-0.40;99.90;;;;;;5071773;28;20021;-81
2021/01/30 07:16:34;;;;;;;153.57;70.43;;;-0.30;99.90;;;;;;5050107;28;20048;-81
2021/01/30 07:19:18;;;;;;;165.90;74.55;;;-0.30;99.90;;;;;;5070875;28;20570;-81
2021/01/30 07:21:50;;;;;;;161.25;73.20;;;-0.30;99.90;;;;;;5071322;28;20032;-80
2021/01/30 07:24:24;;;;;;;171.02;76.15;;;-0.20;99.90;;;;;;5071328;28;20020;-82
2021/01/30 07:27:06;;;;;;;193.90;86.50;;;-0.20;99.90;;;;;;5071369;28;20095;-82
2021/01/30 07:29:39;;;;;;;183.55;81.25;;;-0.10;99.90;;;;;;5072284;28;20017;-82
2021/01/30 07:32:20;;;;;;;174.15;78.38;;;0.00;99.90;;;;;;5071636;28;20024;-82
2021/01/30 07:35:02;;;;;;;159.30;71.10;;;0.00;99.90;;;;;;5079104;28;20101;-82
2021/01/30 07:37:38;;;;;;;151.57;66.18;;;0.00;99.90;;;;;;5082128;28;20031;-82
2021/01/30 07:40:20;;;;;;;163.65;76.38;;;0.10;99.90;;;;;;5074988;28;20027;-81
2021/01/30 07:43:15;;;;;;;122.72;54.50;;;0.10;99.90;;;;;;5076233;28;20054;-83
2021/01/30 07:46:03;;;;;;;150.55;67.68;;;0.20;99.90;;;;;;5069683;28;20036;-83
2021/01/30 07:48:41;;;;;;;139.57;61.08;;;0.20;99.90;;;;;;5046408;28;20086;-84
2021/01/30 07:51:38;;;;;;;110.32;48.25;;;0.30;99.90;;;;;;5070067;28;20115;-83
2021/01/30 07:54:04;;;;;;;102.72;43.72;;;0.30;99.90;;;;;;5069858;28;20565;-82
2021/01/30 07:56:30;;;;;;;93.93;41.92;;;0.30;99.90;;;;;;5068959;28;20371;-82
2021/01/30 07:59:08;;;;;;;86.43;40.03;;;0.30;99.90;;;;;;5069079;28;20024;-82
2021/01/30 08:02:02;;;;;;;91.65;39.15;;;0.30;99.90;;;;;;5071956;28;20025;-83
2021/01/30 08:04:49;;;;;;;93.65;40.58;;;0.30;99.90;;;;;;5081699;28;20090;-82
2021/01/30 08:07:41;;;;;;;87.93;43.08;;;0.30;99.90;;;;;;5088121;28;20078;-82
2021/01/30 08:10:15;;;;;;;86.03;40.97;;;0.40;99.90;;;;;;5071870;28;20023;-82
2021/01/30 08:12:53;;;;;;;104.97;46.03;;;0.40;99.90;;;;;;5066961;28;20036;-82
2021/01/30 08:15:36;;;;;;;172.95;75.80;;;0.40;99.90;;;;;;5053169;28;20107;-83
2021/01/30 08:18:17;;;;;;;;;;;0.40;99.90;;;;;;5053332;28;20391;-82
2021/01/30 08:20:54;;;;;;;141.55;76.03;;;0.50;99.90;;;;;;5070831;28;19915;-82
2021/01/30 08:23:37;;;;;;;96.28;48.65;;;0.50;99.90;;;;;;5071885;28;20032;-82
2021/01/30 08:26:15;;;;;;;95.78;44.88;;;0.50;99.90;;;;;;5068317;28;20044;-82
2021/01/30 08:29:11;;;;;;;91.40;44.72;;;0.60;99.90;;;;;;5065872;28;20386;-83
2021/01/30 08:31:45;;;;;;;95.95;44.13;;;0.60;99.90;;;;;;5070236;28;20104;-83
2021/01/30 08:34:20;;;;;;;96.07;42.50;;;0.60;99.90;;;;;;5069772;28;20489;-82
2021/01/30 08:36:52;;;;;;;92.07;41.90;;;0.60;99.90;;;;;;5068508;28;20056;-82
2021/01/30 08:39:35;;;;;;;87.93;39.60;;;0.60;99.90;;;;;;5052487;28;20020;-83
2021/01/30 08:42:06;;;;;;;83.20;35.90;;;0.80;99.90;;;;;;5070261;28;20028;-83
2021/01/30 08:44:50;;;;;;;81.13;37.55;;;0.80;99.90;;;;;;5071368;28;20029;-83
2021/01/30 08:47:18;;;;;;;74.15;36.72;;;0.80;99.90;;;;;;5070675;28;20028;-82
2021/01/30 08:50:25;;;;;;;73.40;32.17;;;0.90;99.90;;;;;;5072522;28;20488;-83
2021/01/30 08:52:53;;;;;;;67.75;31.50;;;0.90;99.90;;;;;;5055715;28;20032;-82
2021/01/30 08:55:31;;;;;;;69.65;34.85;;;1.00;99.90;;;;;;5071029;28;20099;-81
2021/01/30 08:57:57;;;;;;;60.20;30.60;;;1.00;99.90;;;;;;5073363;28;20426;-81
2021/01/30 09:00:25;;;;;;;69.50;32.63;;;1.10;99.90;;;;;;5070540;28;20028;-82
2021/01/30 09:02:54;;;;;;;55.60;28.90;;;1.10;99.90;;;;;;5068735;28;20025;-82
2021/01/30 09:05:22;;;;;;;57.72;30.38;;;1.20;99.90;;;;;;5071531;28;20123;-82
2021/01/30 09:07:56;;;;;;;54.78;28.50;;;1.10;99.90;;;;;;5074907;28;20044;-81
2021/01/30 09:10:22;;;;;;;61.45;28.95;;;1.20;99.90;;;;;;5053339;28;20398;-81
2021/01/30 09:13:13;;;;;;;64.15;32.00;;;1.20;99.90;;;;;;5072316;28;20037;-81
2021/01/30 09:15:42;;;;;;;66.20;31.55;;;1.20;99.90;;;;;;5073116;28;20563;-81
2021/01/30 09:18:43;;;;;;;90.30;49.15;;;1.30;99.90;;;;;;5073193;28;20119;-82
2021/01/30 09:21:25;;;;;;;125.30;62.58;;;1.30;99.90;;;;;;5063334;28;20040;-81
2021/01/30 09:24:22;;;;;;;129.68;67.40;;;1.30;99.90;;;;;;5072769;28;20050;-81
2021/01/30 09:27:04;;;;;;;74.70;36.03;;;1.30;99.90;;;;;;5073032;28;20567;-80
2021/01/30 09:29:45;;;;;;;103.40;46.08;;;1.40;99.90;;;;;;5072986;28;20470;-81
2021/01/30 09:32:14;;;;;;;62.80;28.80;;;1.40;99.90;;;;;;5069809;28;20031;-81
2021/01/30 09:34:53;;;;;;;62.47;29.67;;;1.40;99.90;;;;;;5057450;28;20032;-81
2021/01/30 09:37:34;;;;;;;77.13;32.10;;;1.50;99.90;;;;;;5071779;28;20119;-81
2021/01/30 09:40:00;;;;;;;57.95;27.05;;;1.50;99.90;;;;;;5078809;28;20037;-81
2021/01/30 09:42:27;;;;;;;49.78;25.27;;;1.50;99.90;;;;;;5076293;28;20020;-80
2021/01/30 09:45:21;;;;;;;52.33;26.23;;;1.60;99.90;;;;;;5073697;28;20032;-81
2021/01/30 09:47:50;;;;;;;55.83;26.67;;;1.70;99.90;;;;;;5069743;28;20432;-80
2021/01/30 09:50:44;;;;;;;54.95;27.80;;;1.70;99.90;;;;;;5072572;28;20157;-81
2021/01/30 09:53:12;;;;;;;64.88;30.00;;;1.80;99.90;;;;;;5041343;28;20444;-81
2021/01/30 09:55:39;;;;;;;48.65;22.85;;;1.80;99.90;;;;;;5048648;28;20025;-81
2021/01/30 09:58:07;;;;;;;35.67;18.30;;;1.90;99.90;;;;;;5059498;28;20075;-80
2021/01/30 10:00:41;;;;;;;56.25;28.58;;;1.80;99.90;;;;;;5067402;28;20457;-80
2021/01/30 10:03:33;;;;;;;42.28;20.02;;;1.90;99.90;;;;;;5069074;28;20508;-80
2021/01/30 10:06:24;;;;;;;25.30;12.05;;;1.80;99.90;;;;;;5069113;28;20036;-80
2021/01/30 10:08:49;;;;;;;31.20;14.32;;;1.70;99.90;;;;;;5067239;28;20397;-80
2021/01/30 10:11:18;;;;;;;37.45;18.33;;;1.60;99.90;;;;;;5069647;28;20389;-80
2021/01/30 10:13:47;;;;;;;47.30;25.48;;;1.60;99.90;;;;;;5067341;28;20025;-81
2021/01/30 10:16:18;;;;;;;54.88;24.58;;;1.50;99.90;;;;;;5069627;28;20027;-80
2021/01/30 10:18:51;;;;;;;42.45;18.70;;;1.30;99.90;;;;;;5069976;28;20378;-80
2021/01/30 10:21:31;;;;;;;60.33;29.60;;;1.20;99.90;;;;;;5071426;28;20017;-80
2021/01/30 10:23:58;;;;;;;74.10;33.45;;;0.80;99.90;;;;;;5072266;28;20029;-80
2021/01/30 10:26:29;;;;;;;78.18;31.70;;;0.60;99.90;;;;;;5070432;28;20040;-81
2021/01/30 10:29:04;;;;;;;87.93;35.08;;;0.20;99.90;;;;;;5069156;28;20122;-80
2021/01/30 10:31:37;;;;;;;92.25;42.70;;;0.10;99.90;;;;;;5068864;28;20017;-80
2021/01/30 10:34:39;;;;;;;88.72;41.67;;;0.00;99.90;;;;;;5069460;28;20029;-80
2021/01/30 10:37:20;;;;;;;68.13;33.88;;;-0.10;99.90;;;;;;5067570;28;20131;-80
2021/01/30 10:39:59;;;;;;;83.45;38.90;;;-0.40;99.90;;;;;;5050347;28;20028;-81
2021/01/30 10:42:28;;;;;;;77.05;34.30;;;-0.60;99.90;;;;;;5066022;28;20082;-81
2021/01/30 10:45:19;;;;;;;80.55;34.80;;;-0.80;99.90;;;;;;5068436;28;20063;-81
2021/01/30 10:47:59;;;;;;;75.65;35.60;;;-0.60;99.90;;;;;;5054459;28;20083;-80
2021/01/30 10:50:29;;;;;;;58.35;30.60;;;-0.70;99.90;;;;;;5066609;28;20032;-81
2021/01/30 10:53:14;;;;;;;72.43;36.67;;;-0.80;99.90;;;;;;5069549;28;20099;-80
2021/01/30 10:55:40;;;;;;;60.83;30.35;;;-1.00;99.90;;;;;;5068196;28;20461;-81
2021/01/30 10:58:26;;;;;;;65.20;32.38;;;-1.30;99.90;;;;;;5046340;28;20032;-81
2021/01/30 11:01:26;;;;;;;76.82;33.95;;;-1.50;99.90;;;;;;5068338;28;20033;-80
2021/01/30 11:03:57;;;;;;;57.05;28.42;;;-1.50;99.90;;;;;;5067577;28;20438;-81
2021/01/30 11:06:29;;;;;;;75.72;34.88;;;-1.70;99.90;;;;;;5065530;28;20028;-80
2021/01/30 11:08:57;;;;;;;52.70;28.20;;;-1.80;99.90;;;;;;5066314;28;20103;-80
2021/01/30 11:11:30;;;;;;;44.17;25.15;;;-2.00;99.90;;;;;;5052043;28;20052;-81
2021/01/30 11:13:58;;;;;;;49.65;26.83;;;-2.10;99.90;;;;;;5065689;28;20038;-81
2021/01/30 11:16:50;;;;;;;47.00;24.25;;;-2.30;99.90;;;;;;5052191;28;20024;-80
2021/01/30 11:19:38;;;;;;;49.13;25.88;;;-2.20;99.90;;;;;;5065659;28;20036;-80
2021/01/30 11:22:10;;;;;;;51.17;24.02;;;-2.30;99.90;;;;;;5049376;28;20033;-80
2021/01/30 11:24:46;;;;;;;58.90;23.80;;;-2.40;99.90;;;;;;5068919;28;20410;-80
2021/01/30 11:27:36;;;;;;;43.45;21.92;;;-2.50;99.90;;;;;;5062807;28;20477;-78
2021/01/30 11:30:22;;;;;;;30.30;16.52;;;-2.60;99.90;;;;;;5064762;28;20107;-78
2021/01/30 11:33:19;;;;;;;43.25;20.02;;;-2.60;99.90;;;;;;5066338;28;20405;-78
2021/01/30 11:35:51;;;;;;;24.45;16.05;;;-2.60;99.90;;;;;;5051959;28;20059;-78
2021/01/30 11:38:25;;;;;;;40.00;18.52;;;-2.60;99.90;;;;;;5079957;28;20024;-77
2021/01/30 11:40:54;;;;;;;65.43;27.20;;;-2.60;99.90;;;;;;5082357;28;20016;-78
2021/01/30 11:43:20;;;;;;;106.55;43.45;;;-2.60;99.90;;;;;;5066101;28;20147;-77
2021/01/30 11:45:48;;;;;;;54.45;21.63;;;-2.60;99.90;;;;;;5070978;28;20037;-78
2021/01/30 11:48:14;;;;;;;49.95;23.98;;;-2.60;99.90;;;;;;5069281;28;20020;-78
2021/01/30 11:50:40;;;;;;;57.90;25.35;;;-2.70;99.90;;;;;;5067828;28;20186;-78
2021/01/30 11:53:22;;;;;;;89.45;35.95;;;-2.60;99.90;;;;;;5067355;28;20013;-78
2021/01/30 11:55:48;;;;;;;78.47;33.28;;;-2.50;99.90;;;;;;5068267;28;20021;-78
2021/01/30 11:58:15;;;;;;;72.30;34.80;;;-2.50;99.90;;;;;;5069202;28;20063;-78
2021/01/30 12:00:41;;;;;;;48.38;22.67;;;-2.60;99.90;;;;;;5072083;28;20040;-80
2021/01/30 12:03:11;;;;;;;77.20;34.60;;;-2.60;99.90;;;;;;5071719;28;20032;-80
2021/01/30 12:05:36;;;;;;;52.50;26.55;;;-2.70;99.90;;;;;;5050196;28;20036;-80
2021/01/30 12:08:02;;;;;;;67.25;29.80;;;-2.70;99.90;;;;;;5068148;28;20043;-77
2021/01/30 12:10:28;;;;;;;44.28;20.92;;;-2.80;99.90;;;;;;5067703;28;20023;-78
2021/01/30 12:12:53;;;;;;;27.90;16.50;;;-2.70;99.90;;;;;;5069086;28;20016;-78
2021/01/30 12:15:19;;;;;;;32.80;19.08;;;-2.70;99.90;;;;;;5071931;28;20031;-78
2021/01/30 12:17:47;;;;;;;26.52;15.15;;;-2.80;99.90;;;;;;5068462;28;20025;-78
2021/01/30 12:20:19;;;;;;;27.88;14.15;;;-2.80;99.90;;;;;;5067218;28;20087;-78
2021/01/30 12:22:46;;;;;;;38.17;18.33;;;-2.70;99.90;;;;;;5073465;28;20504;-77
2021/01/30 12:25:11;;;;;;;36.38;16.95;;;-2.70;99.90;;;;;;5074819;28;20021;-77
2021/01/30 12:27:41;;;;;;;45.42;18.42;;;-2.60;99.90;;;;;;5075325;28;20038;-77
2021/01/30 12:30:08;;;;;;;40.67;18.17;;;-2.60;99.90;;;;;;5075004;28;20024;-77
2021/01/30 12:32:35;;;;;;;34.95;18.50;;;-2.60;99.90;;;;;;5074528;28;20023;-77
2021/01/30 12:35:02;;;;;;;29.42;17.45;;;-2.70;99.90;;;;;;5074818;28;20048;-78
2021/01/30 12:37:28;;;;;;;39.95;20.17;;;-2.80;99.90;;;;;;5076001;28;20021;-78
2021/01/30 12:39:54;;;;;;;37.67;19.52;;;-2.70;99.90;;;;;;5075315;28;20086;-78
2021/01/30 12:42:19;;;;;;;38.38;19.23;;;-2.70;99.90;;;;;;5072734;28;20012;-78
2021/01/30 12:44:47;;;;;;;43.60;20.65;;;-2.80;99.90;;;;;;5054578;28;20024;-78
2021/01/30 12:47:22;;;;;;;44.55;17.13;;;-2.70;99.90;;;;;;5056196;28;20127;-78
2021/01/30 12:49:48;;;;;;;36.67;17.45;;;-2.60;99.90;;;;;;5056862;28;20184;-78
2021/01/30 12:52:14;;;;;;;34.45;16.27;;;-2.70;99.90;;;;;;5074289;28;20116;-78
2021/01/30 12:54:40;;;;;;;38.58;19.83;;;-2.70;99.90;;;;;;5074531;28;20043;-79
2021/01/30 12:57:06;;;;;;;45.00;20.02;;;-2.70;99.90;;;;;;5074488;28;20498;-81
2021/01/30 12:59:31;;;;;;;39.50;17.67;;;-2.70;99.90;;;;;;5056087;28;20432;-78
2021/01/30 13:01:57;;;;;;;36.70;19.10;;;-2.70;99.90;;;;;;5056782;28;20020;-78
2021/01/30 13:04:23;;;;;;;41.22;20.67;;;-2.80;99.90;;;;;;5075501;28;20081;-78